This is the latest recevied weather packets stored in our database for station/object NI4CE-11. If no packets are shown the sender has not sent any weather packets the latest 10 day(s).
| Time | Temp. | Humidity | Pressure | Rain* | Wind** | Luminosity | Snow |
|---|---|---|---|---|---|---|---|
| 1777860597 | 21.11° C | 100% | 1017.1 hPa | 0 mm | - | - | - |
| 1777860559 | 21.67° C | 100% | 1016.9 hPa | 0 mm | - | - | - |
| 1777860297 | 21.11° C | 100% | 1017 hPa | 0 mm | - | - | - |
| 1777859997 | 21.67° C | 100% | 1016.9 hPa | 0 mm | - | - | - |
| 1777859846 | 21.11° C | 100% | 1016.9 hPa | 0 mm | - | - | - |
| 1777859761 | 21.11° C | 100% | 1016.9 hPa | 0 mm | - | - | - |
| 1777859697 | 21.11° C | 100% | 1016.9 hPa | 0 mm | - | - | - |
| 1777859397 | 21.11° C | 100% | 1016.9 hPa | 0 mm | - | - | - |
| 1777859295 | 21.11° C | 100% | 1016.9 hPa | 0 mm | - | - | - |
| 1777859097 | 21.67° C | 100% | 1017 hPa | 0 mm | - | - | - |
| 1777858797 | 21.11° C | 100% | 1016.9 hPa | 0 mm | - | - | - |
| 1777858497 | 21.67° C | 100% | 1016.8 hPa | 0 mm | - | - | - |
| 1777858290 | 21.67° C | 100% | 1016.8 hPa | 0 mm | - | - | - |
| 1777858197 | 21.67° C | 100% | 1016.8 hPa | 0 mm | - | - | - |
| 1777858088 | 21.67° C | 100% | 1016.6 hPa | 0 mm | - | - | - |
| 1777857897 | 21.67° C | 100% | 1016.7 hPa | 0 mm | - | - | - |
| 1777857597 | 21.67° C | 100% | 1016.6 hPa | 0 mm | - | - | - |
| 1777857297 | 21.67° C | 100% | 1016.6 hPa | 0 mm | - | - | - |
| 1777856997 | 21.67° C | 100% | 1016.6 hPa | 0 mm | - | - | - |
| 1777856697 | 21.67° C | 100% | 1016.5 hPa | 0 mm | - | - | - |
| 1777856397 | 21.67° C | 100% | 1016.4 hPa | 0 mm | - | - | - |
| 1777856097 | 21.67° C | 100% | 1016.4 hPa | 0 mm | - | - | - |
| 1777855856 | 23.33° C | 100% | 1015.9 hPa | 0 mm | - | - | - |
| 1777855797 | 21.67° C | 100% | 1016.3 hPa | 0 mm | - | - | - |
| 1777855497 | 22.78° C | 100% | 1016.2 hPa | 0 mm | - | - | - |
* Rain latest hour (hover to see other rain measurements)
** Current wind speed in m/s (hover to see current wind gust speed)